METAR & TAF

RJTT 200730Z 09004KT 9999 FEW030 SCT050 BKN/// 10/M01 Q1015 NOSIG
RJTT 200700Z 11006KT 080V140 9999 FEW030 SCT060 10/M01 Q1015 NOSIG RMK 1CU030 4SC060 A2999
RJTT 200630Z 12006KT 9999 FEW030 SCT060 BKN/// 10/M01 Q1016 NOSIG
RJTT 200600Z 13005KT 100V160 9999 FEW030 SCT140 BKN/// 10/M01 Q1016 NOSIG RMK 1CU030 4AC140 A3001
RJTT 200530Z 12008KT 9999 FEW030 SCT060 BKN150 10/M01 Q1016 NOSIG RMK 1CU030 3SC060 6AC150 A3001
RJTT 200500Z 11005KT 9999 FEW030 SCT040 BKN150 10/M00 Q1016 NOSIG RMK 1CU030 3SC040 6AC150 A3002
RJTT 200430Z 09004KT 060V130 9999 FEW030 BKN040 BKN/// 09/M01 Q1016 NOSIG
RJTT 200400Z 10004KT 9999 FEW030 SCT090 BKN150 09/M01 Q1017 NOSIG RMK 1CU030 4AC090 6AC150 A3004
RJTT 200330Z VRB02KT 9999 FEW030 SCT090 BKN150 09/M01 Q1017 BECMG 12006KT
RJTT 200300Z VRB01KT 9999 FEW030 BKN090 BKN/// 09/M01 Q1018 BECMG 12006KT RMK 1CU030 6AC090 A3006

TAF RJTT 200509Z 2006/2112 14007KT 9999 FEW030 BKN050
  BECMG 2008/2010 21010KT
  BECMG 2011/2013 31006KT
  BECMG 2018/2021 32020KT
  TEMPO 2018/2021 32022G34KT
  BECMG 2103/2106 01010KT